createdAt,value
2022-08-28T00:00:29.410Z,22.22
2022-08-28T00:03:10.179Z,22.24
2022-08-28T00:05:38.999Z,22.22
2022-08-28T00:08:06.532Z,22.22
2022-08-28T00:10:33.069Z,22.19
2022-08-28T00:12:59.484Z,22.18
2022-08-28T00:15:31.755Z,22.19
2022-08-28T00:17:59.139Z,22.14
2022-08-28T00:20:27.361Z,22.08
2022-08-28T00:22:55.002Z,22.03
2022-08-28T00:25:24.256Z,21.93
2022-08-28T00:27:52.686Z,21.88
2022-08-28T00:30:25.437Z,21.84
2022-08-28T00:32:53.750Z,21.81
2022-08-28T00:35:22.731Z,21.79
2022-08-28T00:37:50.083Z,21.78
2022-08-28T00:40:20.007Z,21.78
2022-08-28T00:43:01.220Z,21.82
2022-08-28T00:45:28.684Z,21.85
2022-08-28T00:47:55.895Z,21.83
2022-08-28T00:50:50.599Z,21.80
2022-08-28T00:53:18.152Z,21.73
2022-08-28T00:55:44.873Z,21.68
2022-08-28T00:58:13.202Z,21.64
2022-08-28T01:00:40.607Z,21.66
2022-08-28T01:03:08.133Z,21.71
2022-08-28T01:05:35.906Z,21.76
2022-08-28T01:08:03.805Z,21.78
2022-08-28T01:10:34.158Z,21.81
2022-08-28T01:13:02.397Z,21.80
2022-08-28T01:15:33.057Z,21.80
2022-08-28T01:18:08.025Z,21.74
2022-08-28T01:20:41.175Z,21.67
2022-08-28T01:23:26.262Z,21.53
2022-08-28T01:25:53.481Z,21.45
2022-08-28T01:28:20.310Z,21.42
2022-08-28T01:30:48.613Z,21.39
2022-08-28T01:33:15.937Z,21.37
2022-08-28T01:35:46.902Z,21.33
2022-08-28T01:38:20.207Z,21.36
2022-08-28T01:40:53.030Z,21.34
2022-08-28T01:43:23.120Z,21.32
2022-08-28T01:45:53.724Z,21.33
2022-08-28T01:48:23.655Z,21.35
2022-08-28T01:50:50.494Z,21.36
2022-08-28T01:53:19.120Z,21.35
2022-08-28T01:55:51.786Z,21.35
2022-08-28T01:58:19.126Z,21.33
2022-08-28T02:00:46.094Z,21.32
2022-08-28T02:03:12.991Z,21.30
2022-08-28T02:05:39.666Z,21.27
2022-08-28T02:08:07.160Z,21.24
2022-08-28T02:10:37.333Z,21.17
2022-08-28T02:13:05.620Z,21.13
2022-08-28T02:15:35.274Z,21.12
2022-08-28T02:18:02.170Z,21.10
2022-08-28T02:20:29.780Z,21.09
2022-08-28T02:22:57.653Z,21.09
2022-08-28T02:25:25.371Z,21.04
2022-08-28T02:27:52.611Z,21.00
2022-08-28T02:30:19.607Z,20.98
2022-08-28T02:32:46.531Z,20.95
2022-08-28T02:35:16.129Z,20.93
2022-08-28T02:37:43.885Z,20.89
2022-08-28T02:40:13.567Z,20.84
2022-08-28T02:42:41.480Z,20.81
2022-08-28T02:45:11.045Z,20.77
2022-08-28T02:47:39.342Z,20.77
2022-08-28T02:50:08.646Z,20.72
2022-08-28T02:52:36.813Z,20.66
2022-08-28T02:55:08.992Z,20.62
2022-08-28T02:57:35.389Z,20.56
2022-08-28T03:00:05.559Z,20.50
2022-08-28T03:02:32.013Z,20.49
2022-08-28T03:04:59.847Z,20.43
2022-08-28T03:07:28.241Z,20.38
2022-08-28T03:09:54.966Z,20.35
2022-08-28T03:12:24.766Z,20.35
2022-08-28T03:14:52.609Z,20.32
2022-08-28T03:17:21.420Z,20.30
2022-08-28T03:19:51.865Z,20.18
2022-08-28T03:22:41.922Z,20.21
2022-08-28T03:25:09.728Z,20.18
2022-08-28T03:27:36.244Z,20.17
2022-08-28T03:30:06.491Z,20.17
2022-08-28T03:32:33.357Z,20.16
2022-08-28T03:34:59.725Z,20.10
2022-08-28T03:37:26.549Z,20.07
2022-08-28T03:39:53.497Z,20.05
2022-08-28T03:42:19.954Z,20.06
2022-08-28T03:44:48.907Z,20.03
2022-08-28T03:47:15.881Z,20.02
2022-08-28T03:49:44.705Z,20.03
2022-08-28T03:52:12.090Z,20.04
2022-08-28T03:54:38.763Z,20.07
2022-08-28T03:57:07.024Z,20.06
2022-08-28T03:59:35.293Z,20.05
2022-08-28T04:02:01.777Z,20.02
2022-08-28T04:04:28.160Z,19.96
2022-08-28T04:06:54.732Z,20.00
2022-08-28T04:09:21.210Z,20.01
2022-08-28T04:11:47.579Z,20.07
2022-08-28T04:14:14.033Z,20.07
2022-08-28T04:16:40.855Z,20.09
2022-08-28T04:19:07.397Z,20.14
2022-08-28T04:21:33.797Z,20.17
2022-08-28T04:24:00.146Z,20.15
2022-08-28T04:26:27.265Z,20.20
2022-08-28T04:28:55.833Z,20.14
2022-08-28T04:31:31.596Z,20.10
2022-08-28T04:34:04.486Z,20.14
2022-08-28T04:36:32.970Z,20.17
2022-08-28T04:38:59.875Z,20.27
2022-08-28T04:41:27.070Z,20.33
2022-08-28T04:43:56.562Z,20.38
2022-08-28T04:58:25.721Z,20.56
2022-08-28T05:00:54.981Z,20.50
2022-08-28T05:03:24.017Z,20.52
2022-08-28T05:05:54.193Z,20.54
2022-08-28T05:08:24.294Z,20.55
2022-08-28T05:10:53.099Z,20.49
2022-08-28T05:13:21.823Z,20.48
2022-08-28T05:15:51.993Z,20.52
2022-08-28T05:18:24.015Z,20.52
2022-08-28T05:20:51.942Z,20.60
2022-08-28T05:23:19.738Z,20.67
2022-08-28T05:25:53.739Z,20.67
2022-08-28T05:28:22.089Z,20.71
2022-08-28T05:30:50.461Z,20.75
2022-08-28T05:33:18.659Z,20.85
2022-08-28T05:35:47.464Z,20.85
2022-08-28T05:38:16.890Z,20.90
2022-08-28T05:40:49.398Z,21.00
2022-08-28T05:43:18.423Z,21.05
2022-08-28T05:45:46.325Z,21.03
2022-08-28T05:48:14.447Z,21.03
2022-08-28T05:50:47.425Z,21.06
2022-08-28T05:53:18.136Z,21.05
2022-08-28T05:55:51.660Z,21.11
2022-08-28T05:58:29.167Z,21.17
2022-08-28T06:01:10.079Z,21.19
2022-08-28T06:03:39.736Z,21.26
2022-08-28T06:06:09.129Z,21.36
2022-08-28T06:08:37.497Z,21.41
2022-08-28T06:11:07.561Z,21.52
2022-08-28T06:13:36.758Z,21.51
2022-08-28T06:16:05.709Z,21.58
2022-08-28T06:18:36.185Z,21.55
2022-08-28T06:21:04.402Z,21.59
2022-08-28T06:23:32.555Z,21.61
2022-08-28T06:26:00.813Z,21.65
2022-08-28T06:28:28.885Z,21.65
2022-08-28T06:31:18.384Z,21.55
2022-08-28T06:33:46.242Z,21.55
2022-08-28T06:36:14.040Z,21.50
2022-08-28T06:38:46.693Z,21.51
2022-08-28T06:41:15.702Z,21.50
2022-08-28T06:43:43.622Z,21.46
2022-08-28T06:46:11.641Z,21.43
2022-08-28T06:48:39.583Z,21.44
2022-08-28T06:51:09.918Z,21.42
2022-08-28T06:53:40.035Z,21.47
2022-08-28T06:56:23.642Z,21.45
2022-08-28T06:58:58.079Z,21.42
2022-08-28T07:01:45.619Z,21.44
2022-08-28T07:04:14.699Z,21.43
2022-08-28T07:06:46.990Z,21.41
2022-08-28T07:09:15.452Z,21.49
2022-08-28T07:11:46.733Z,21.53
2022-08-28T07:14:14.659Z,21.51
2022-08-28T07:16:44.605Z,21.50
2022-08-28T07:19:14.130Z,21.55
2022-08-28T07:21:44.931Z,21.70
2022-08-28T07:24:15.308Z,21.75
2022-08-28T07:26:44.618Z,21.79
2022-08-28T07:29:13.214Z,21.74
2022-08-28T07:31:44.161Z,21.73
2022-08-28T07:34:13.690Z,21.66
2022-08-28T07:36:42.586Z,21.75
2022-08-28T07:39:13.560Z,21.86
2022-08-28T07:41:43.034Z,21.85
2022-08-28T07:44:32.772Z,21.83
2022-08-28T07:47:05.672Z,21.90
2022-08-28T07:49:35.159Z,22.00
2022-08-28T07:52:05.070Z,22.01
2022-08-28T07:54:33.085Z,22.05
2022-08-28T07:57:02.196Z,21.95
2022-08-28T07:59:36.528Z,21.91
2022-08-28T08:02:06.982Z,21.94
2022-08-28T08:04:35.435Z,21.98
2022-08-28T08:07:05.011Z,22.07
2022-08-28T08:09:38.694Z,22.16
2022-08-28T08:12:07.977Z,22.32
2022-08-28T08:14:40.531Z,22.37
2022-08-28T08:17:09.446Z,22.51
2022-08-28T08:19:37.311Z,22.62
2022-08-28T08:22:06.247Z,22.69
2022-08-28T08:24:34.545Z,22.68
2022-08-28T08:27:03.256Z,22.58
2022-08-28T08:29:35.817Z,22.56
2022-08-28T08:32:10.473Z,22.57
2022-08-28T08:34:43.078Z,22.56
2022-08-28T08:37:13.483Z,22.54
2022-08-28T08:39:42.843Z,22.63
2022-08-28T08:42:27.861Z,22.67
2022-08-28T08:44:58.334Z,22.73
2022-08-28T08:47:35.165Z,22.62
2022-08-28T08:50:13.329Z,22.69
2022-08-28T08:53:16.307Z,22.63
2022-08-28T08:55:50.845Z,22.64
2022-08-28T08:58:42.163Z,22.64
2022-08-28T09:01:20.778Z,22.70
2022-08-28T09:04:09.919Z,22.72
2022-08-28T09:06:50.330Z,22.75
2022-08-28T09:09:26.676Z,22.87
2022-08-28T09:11:58.578Z,23.11
2022-08-28T09:14:53.335Z,23.23
2022-08-28T09:17:30.368Z,23.19
2022-08-28T09:19:58.490Z,23.18
2022-08-28T09:22:26.340Z,23.40
2022-08-28T09:24:55.281Z,23.29
2022-08-28T09:27:28.763Z,23.29
2022-08-28T09:30:10.348Z,23.41
2022-08-28T09:32:41.746Z,23.36
2022-08-28T09:35:24.776Z,23.29
2022-08-28T09:37:52.803Z,23.38
2022-08-28T09:40:25.455Z,23.33
2022-08-28T09:43:27.331Z,23.26
2022-08-28T09:46:16.820Z,23.31
2022-08-28T09:48:47.609Z,23.26
2022-08-28T09:51:21.372Z,23.16
2022-08-28T09:53:52.208Z,23.23
2022-08-28T09:56:36.494Z,23.34
2022-08-28T09:59:13.731Z,23.36
2022-08-28T10:01:43.410Z,23.34
2022-08-28T10:04:16.816Z,23.41
2022-08-28T10:06:49.635Z,23.38
2022-08-28T10:09:39.177Z,23.33
2022-08-28T10:12:26.937Z,23.29
2022-08-28T10:14:57.410Z,23.41
2022-08-28T10:17:46.189Z,23.49
2022-08-28T10:20:22.772Z,23.49
2022-08-28T10:23:17.924Z,23.40
2022-08-28T10:26:13.845Z,23.34
2022-08-28T10:28:48.073Z,23.35
2022-08-28T10:31:37.713Z,23.39
2022-08-28T10:34:29.748Z,23.36
2022-08-28T10:37:10.917Z,23.29
2022-08-28T10:39:51.897Z,23.28
2022-08-28T10:42:37.089Z,23.27
2022-08-28T10:45:08.748Z,23.25
2022-08-28T10:47:41.885Z,23.21
2022-08-28T10:50:51.905Z,23.23
2022-08-28T10:53:48.716Z,23.34
2022-08-28T10:56:21.854Z,23.36
2022-08-28T10:58:55.526Z,23.37
2022-08-28T11:01:30.699Z,23.31
2022-08-28T11:04:01.339Z,23.27
2022-08-28T11:06:37.113Z,23.24
2022-08-28T11:09:25.130Z,23.20
2022-08-28T11:12:01.972Z,23.17
2022-08-28T11:14:47.841Z,23.15
2022-08-28T11:17:27.623Z,23.12
2022-08-28T11:20:17.534Z,23.08
2022-08-28T11:23:04.145Z,23.11
2022-08-28T11:25:51.170Z,23.06
2022-08-28T11:28:47.464Z,23.04
2022-08-28T11:31:16.301Z,22.97
2022-08-28T11:34:00.112Z,22.91
2022-08-28T11:36:29.900Z,22.86
2022-08-28T11:38:58.278Z,22.88
2022-08-28T11:42:01.204Z,22.86
2022-08-28T12:00:46.423Z,22.86
2022-08-28T12:03:28.498Z,22.81
2022-08-28T12:05:58.669Z,22.73
2022-08-28T12:08:44.877Z,22.65
2022-08-28T12:11:40.920Z,22.57
2022-08-28T12:14:08.659Z,22.54
2022-08-28T12:16:58.364Z,22.50
2022-08-28T12:19:31.050Z,22.51
2022-08-28T12:22:05.364Z,22.50
2022-08-28T12:24:35.583Z,22.56
2022-08-28T12:27:06.445Z,22.55
2022-08-28T12:29:55.566Z,22.62
2022-08-28T12:32:41.410Z,22.67
2022-08-28T12:35:21.741Z,22.72
2022-08-28T12:37:56.054Z,22.77
2022-08-28T12:40:50.511Z,22.84
2022-08-28T12:43:27.849Z,22.89
2022-08-28T12:46:08.430Z,22.90
2022-08-28T12:48:52.150Z,22.90
2022-08-28T12:51:23.584Z,22.89
2022-08-28T12:53:57.752Z,22.87
2022-08-28T12:56:30.136Z,22.92
2022-08-28T12:59:56.395Z,22.99
2022-08-28T13:02:34.885Z,23.00
2022-08-28T13:05:12.140Z,23.02
2022-08-28T13:07:47.386Z,22.95
2022-08-28T13:10:23.192Z,22.98
2022-08-28T13:12:59.809Z,23.01
2022-08-28T13:15:47.990Z,23.02
2022-08-28T13:18:34.399Z,23.01
2022-08-28T13:21:19.986Z,22.98
2022-08-28T13:24:20.555Z,22.95
2022-08-28T13:26:51.014Z,22.94
2022-08-28T13:29:24.458Z,22.97
2022-08-28T13:32:02.139Z,22.97
2022-08-28T13:34:32.698Z,23.01
2022-08-28T13:37:20.077Z,23.00
2022-08-28T13:39:48.544Z,22.96
2022-08-28T13:42:18.252Z,22.90
2022-08-28T13:44:49.128Z,22.94
2022-08-28T13:47:17.325Z,22.89
2022-08-28T13:49:46.772Z,22.91
2022-08-28T13:52:15.141Z,22.84
2022-08-28T13:54:45.374Z,22.90
2022-08-28T13:57:14.304Z,22.90
2022-08-28T13:59:42.116Z,22.86
2022-08-28T14:02:33.102Z,22.82
2022-08-28T14:05:01.104Z,22.82
2022-08-28T14:07:29.512Z,22.86
2022-08-28T14:09:57.937Z,22.81
2022-08-28T14:12:33.011Z,22.76
2022-08-28T14:15:02.888Z,22.73
2022-08-28T14:17:31.228Z,22.72
2022-08-28T14:20:00.422Z,22.66
2022-08-28T14:22:28.586Z,22.66
2022-08-28T14:24:56.553Z,22.67
2022-08-28T14:27:24.361Z,22.62
2022-08-28T14:29:53.581Z,22.57
2022-08-28T14:32:21.385Z,22.56
2022-08-28T14:34:50.654Z,22.49
2022-08-28T14:37:18.509Z,22.62
2022-08-28T14:39:46.422Z,22.63
2022-08-28T14:42:14.195Z,22.60
2022-08-28T14:44:41.945Z,22.58
2022-08-28T14:47:09.802Z,22.62
2022-08-28T14:49:37.828Z,22.55
2022-08-28T14:52:05.741Z,22.62
2022-08-28T14:54:33.934Z,22.64
2022-08-28T14:57:02.120Z,22.65
2022-08-28T14:59:31.403Z,22.65
2022-08-28T15:02:00.357Z,22.68
2022-08-28T15:04:37.667Z,22.70
2022-08-28T15:07:10.654Z,22.70
2022-08-28T15:09:41.593Z,22.70
2022-08-28T15:12:09.467Z,22.66
2022-08-28T15:14:37.639Z,22.62
2022-08-28T15:17:05.755Z,22.66
2022-08-28T15:19:33.980Z,22.70
2022-08-28T15:22:04.214Z,22.71
2022-08-28T15:24:34.455Z,22.69
2022-08-28T15:27:02.621Z,22.72
2022-08-28T15:29:30.621Z,22.80
2022-08-28T15:31:59.004Z,22.82
2022-08-28T15:34:28.581Z,22.77
2022-08-28T15:36:57.896Z,22.69
2022-08-28T15:39:46.011Z,22.65
2022-08-28T15:42:15.330Z,22.63
2022-08-28T15:44:43.456Z,22.58
2022-08-28T15:47:13.805Z,22.59
2022-08-28T15:49:48.707Z,22.54
2022-08-28T15:52:19.204Z,22.46
2022-08-28T15:54:48.357Z,22.35
2022-08-28T15:57:16.253Z,22.28
2022-08-28T15:59:48.551Z,22.16
2022-08-28T16:02:21.497Z,22.11
2022-08-28T16:04:50.242Z,22.10
2022-08-28T16:07:19.791Z,22.03
2022-08-28T16:09:47.942Z,22.02
2022-08-28T16:12:15.726Z,21.92
2022-08-28T16:14:43.883Z,21.90
2022-08-28T16:17:11.887Z,21.86
2022-08-28T16:19:40.809Z,21.85
2022-08-28T16:22:15.970Z,21.85
2022-08-28T16:24:45.439Z,21.84
2022-08-28T16:27:15.762Z,21.85
2022-08-28T16:29:44.745Z,21.80
2022-08-28T16:32:13.004Z,21.72
2022-08-28T16:34:41.268Z,21.72
2022-08-28T16:37:13.147Z,21.67
2022-08-28T16:39:43.852Z,21.66
2022-08-28T16:42:11.715Z,21.67
2022-08-28T16:44:39.491Z,21.63
2022-08-28T16:47:07.544Z,21.59
2022-08-28T16:49:35.398Z,21.60
2022-08-28T16:52:03.598Z,21.59
2022-08-28T16:54:31.360Z,21.57
2022-08-28T16:56:59.238Z,21.58
2022-08-28T16:59:27.090Z,21.58
2022-08-28T17:01:56.057Z,21.59
2022-08-28T17:04:25.726Z,21.60
2022-08-28T17:06:53.615Z,21.66
2022-08-28T17:09:23.531Z,21.68
2022-08-28T17:11:52.207Z,21.63
2022-08-28T17:14:22.063Z,21.62
2022-08-28T17:16:51.426Z,21.58
2022-08-28T17:19:20.947Z,21.54
2022-08-28T17:22:08.257Z,21.52
2022-08-28T17:24:36.249Z,21.51
2022-08-28T17:27:05.778Z,21.53
2022-08-28T17:29:35.535Z,21.52
2022-08-28T17:32:05.300Z,21.50
2022-08-28T17:34:33.718Z,21.49
2022-08-28T17:37:02.531Z,21.44
2022-08-28T17:39:30.954Z,21.40
2022-08-28T17:41:58.778Z,21.38
2022-08-28T17:44:26.826Z,21.33
2022-08-28T17:46:54.581Z,21.31
2022-08-28T17:49:22.898Z,21.27
2022-08-28T17:51:51.170Z,21.21
2022-08-28T17:54:22.726Z,21.18
2022-08-28T17:56:52.377Z,21.14
2022-08-28T17:59:22.347Z,21.11
2022-08-28T18:01:51.096Z,21.06
2022-08-28T18:04:24.509Z,20.99
2022-08-28T18:06:54.637Z,20.98
2022-08-28T18:09:24.506Z,20.92
2022-08-28T18:11:52.461Z,20.93
2022-08-28T18:14:21.350Z,20.90
2022-08-28T18:16:49.452Z,20.85
2022-08-28T18:19:17.471Z,20.81
2022-08-28T18:21:46.655Z,20.80
2022-08-28T18:24:14.481Z,20.79
2022-08-28T18:26:43.440Z,20.76
2022-08-28T18:29:14.514Z,20.74
2022-08-28T18:31:43.385Z,20.71
2022-08-28T18:34:11.774Z,20.67
2022-08-28T18:36:44.095Z,20.66
2022-08-28T18:39:13.100Z,20.62
2022-08-28T18:41:44.527Z,20.60
2022-08-28T18:44:14.455Z,20.61
2022-08-28T18:46:44.102Z,20.57
2022-08-28T18:49:12.904Z,20.56
2022-08-28T18:51:43.137Z,20.55
2022-08-28T18:54:13.513Z,20.54
2022-08-28T18:56:45.792Z,20.56
2022-08-28T18:59:13.712Z,20.48
2022-08-28T19:01:42.242Z,20.47
2022-08-28T19:04:10.170Z,20.43
2022-08-28T19:06:38.185Z,20.42
2022-08-28T19:09:06.506Z,20.43
2022-08-28T19:11:35.838Z,20.42
2022-08-28T19:14:04.216Z,20.43
2022-08-28T19:16:32.518Z,20.41
2022-08-28T19:19:02.023Z,20.41
2022-08-28T19:21:30.227Z,20.41
2022-08-28T19:23:58.172Z,20.37
2022-08-28T19:26:27.650Z,20.33
2022-08-28T19:28:55.679Z,20.31
2022-08-28T19:31:25.378Z,20.27
2022-08-28T19:33:53.575Z,20.28
2022-08-28T19:36:21.792Z,20.27
2022-08-28T19:38:50.772Z,20.25
2022-08-28T19:41:18.789Z,20.26
2022-08-28T19:43:46.718Z,20.23
2022-08-28T19:46:19.632Z,20.23
2022-08-28T19:48:50.359Z,20.24
2022-08-28T19:51:23.489Z,20.21
2022-08-28T19:53:57.680Z,20.17
2022-08-28T19:56:28.818Z,20.13
2022-08-28T19:58:59.320Z,20.13
2022-08-28T20:01:32.892Z,20.08
2022-08-28T20:04:01.286Z,20.08
2022-08-28T20:06:32.039Z,20.09
2022-08-28T20:09:01.270Z,20.10
2022-08-28T20:11:30.925Z,20.12
2022-08-28T20:14:04.261Z,20.15
2022-08-28T20:16:35.968Z,20.17
2022-08-28T20:19:07.785Z,20.15
2022-08-28T20:21:38.395Z,20.15
2022-08-28T20:24:10.033Z,20.19
2022-08-28T20:26:37.899Z,20.20
2022-08-28T20:29:07.391Z,20.24
2022-08-28T20:31:37.056Z,20.25
2022-08-28T20:34:05.032Z,20.26
2022-08-28T20:36:32.924Z,20.23
2022-08-28T20:39:02.316Z,20.23
2022-08-28T20:41:30.174Z,20.22
2022-08-28T20:43:57.887Z,20.24
2022-08-28T20:46:25.783Z,20.27
2022-08-28T20:48:53.758Z,20.28
2022-08-28T20:51:41.514Z,20.29
2022-08-28T20:54:09.416Z,20.26
2022-08-28T20:56:37.587Z,20.29
2022-08-28T20:59:05.752Z,20.29
2022-08-28T21:01:33.945Z,20.22
2022-08-28T21:04:02.320Z,20.23
2022-08-28T21:06:31.183Z,20.25
2022-08-28T21:08:59.385Z,20.26
2022-08-28T21:11:29.502Z,20.27
2022-08-28T21:13:57.245Z,20.28
2022-08-28T21:16:25.097Z,20.23
2022-08-28T21:19:14.452Z,20.19
2022-08-28T21:21:41.839Z,20.17
2022-08-28T21:24:12.506Z,20.16
2022-08-28T21:26:43.318Z,20.16
2022-08-28T21:29:14.056Z,20.12
2022-08-28T21:31:44.453Z,20.10
2022-08-28T21:34:12.211Z,20.15
2022-08-28T21:36:49.557Z,20.12
2022-08-28T21:39:20.682Z,20.11
2022-08-28T21:41:49.430Z,20.13
2022-08-28T21:44:18.260Z,20.09
2022-08-28T21:46:46.186Z,20.12
2022-08-28T21:49:13.945Z,20.14
2022-08-28T21:51:41.886Z,20.16
2022-08-28T21:54:09.753Z,20.14
2022-08-28T21:56:37.702Z,20.12
2022-08-28T21:59:05.490Z,20.08
2022-08-28T22:01:33.378Z,20.06
2022-08-28T22:04:01.353Z,20.03
2022-08-28T22:06:30.123Z,20.05
2022-08-28T22:08:58.247Z,20.05
2022-08-28T22:11:26.939Z,20.05
2022-08-28T22:13:56.911Z,20.02
2022-08-28T22:16:26.335Z,20.00
2022-08-28T22:18:54.694Z,19.91
2022-08-28T22:21:43.867Z,19.85
2022-08-28T22:24:13.436Z,19.75
2022-08-28T22:26:43.278Z,19.65
2022-08-28T22:29:11.643Z,19.66
2022-08-28T22:31:45.873Z,19.62
2022-08-28T22:34:14.904Z,19.54
2022-08-28T22:36:42.784Z,19.51
2022-08-28T22:39:10.569Z,19.49
2022-08-28T22:41:38.745Z,19.50
2022-08-28T22:44:07.331Z,19.49
2022-08-28T22:46:36.049Z,19.46
2022-08-28T22:49:04.508Z,19.47
2022-08-28T22:51:34.430Z,19.47
2022-08-28T22:54:02.799Z,19.48
2022-08-28T22:56:30.568Z,19.49
2022-08-28T22:58:58.545Z,19.48
2022-08-28T23:01:26.844Z,19.45
2022-08-28T23:03:54.975Z,19.44
2022-08-28T23:06:23.125Z,19.40
2022-08-28T23:08:51.025Z,19.37
2022-08-28T23:11:18.800Z,19.35
2022-08-28T23:13:47.178Z,19.28
2022-08-28T23:16:23.869Z,19.23
2022-08-28T23:19:09.283Z,19.21
2022-08-28T23:21:39.348Z,19.19
2022-08-28T23:24:16.756Z,19.17
2022-08-28T23:26:46.047Z,19.14
2022-08-28T23:29:14.231Z,19.14
2022-08-28T23:31:42.337Z,19.08
2022-08-28T23:34:10.383Z,19.07
2022-08-28T23:36:39.329Z,19.04
2022-08-28T23:39:07.470Z,18.99
2022-08-28T23:41:35.227Z,18.95
2022-08-28T23:44:08.279Z,18.88
2022-08-28T23:46:41.354Z,18.82
2022-08-28T23:49:11.405Z,18.74
2022-08-28T23:51:42.754Z,18.67
2022-08-28T23:54:11.531Z,18.64
2022-08-28T23:56:39.423Z,18.57
2022-08-28T23:59:07.568Z,18.52
